sensor_id;sensor_type;location;lat;lon;timestamp;P1;durP1;ratioP1;P2;durP2;ratioP2
1410;SDS011;700;51.906;8.404;2023-12-20T00:00:30;11.40;;;7.70;;
1410;SDS011;700;51.906;8.404;2023-12-20T00:05:31;9.63;;;7.07;;
1410;SDS011;700;51.906;8.404;2023-12-20T00:10:35;11.83;;;8.83;;
1410;SDS011;700;51.906;8.404;2023-12-20T00:15:38;9.30;;;7.27;;
1410;SDS011;700;51.906;8.404;2023-12-20T00:20:42;9.07;;;7.27;;
1410;SDS011;700;51.906;8.404;2023-12-20T00:25:42;9.30;;;7.40;;
1410;SDS011;700;51.906;8.404;2023-12-20T00:30:43;9.57;;;6.97;;
1410;SDS011;700;51.906;8.404;2023-12-20T00:35:44;10.80;;;7.27;;
1410;SDS011;700;51.906;8.404;2023-12-20T00:40:44;10.70;;;7.30;;
1410;SDS011;700;51.906;8.404;2023-12-20T00:45:45;8.50;;;6.47;;
1410;SDS011;700;51.906;8.404;2023-12-20T00:50:45;10.70;;;5.70;;
1410;SDS011;700;51.906;8.404;2023-12-20T00:55:49;7.93;;;5.30;;
1410;SDS011;700;51.906;8.404;2023-12-20T01:00:52;7.17;;;4.47;;
1410;SDS011;700;51.906;8.404;2023-12-20T01:05:53;8.10;;;4.00;;
1410;SDS011;700;51.906;8.404;2023-12-20T01:10:56;6.30;;;3.30;;
1410;SDS011;700;51.906;8.404;2023-12-20T01:15:57;6.87;;;3.80;;
1410;SDS011;700;51.906;8.404;2023-12-20T01:21:01;6.73;;;3.00;;
1410;SDS011;700;51.906;8.404;2023-12-20T01:26:03;4.77;;;2.77;;
1410;SDS011;700;51.906;8.404;2023-12-20T01:31:08;7.47;;;2.97;;
1410;SDS011;700;51.906;8.404;2023-12-20T01:36:11;7.07;;;2.57;;
1410;SDS011;700;51.906;8.404;2023-12-20T01:41:12;4.30;;;2.87;;
1410;SDS011;700;51.906;8.404;2023-12-20T01:46:12;4.37;;;2.03;;
1410;SDS011;700;51.906;8.404;2023-12-20T01:51:13;8.07;;;3.10;;
1410;SDS011;700;51.906;8.404;2023-12-20T01:56:19;6.03;;;2.33;;
1410;SDS011;700;51.906;8.404;2023-12-20T02:01:23;8.63;;;2.57;;
1410;SDS011;700;51.906;8.404;2023-12-20T02:06:24;4.83;;;2.90;;
1410;SDS011;700;51.906;8.404;2023-12-20T02:11:30;6.80;;;2.90;;
1410;SDS011;700;51.906;8.404;2023-12-20T02:16:31;7.63;;;2.53;;
1410;SDS011;700;51.906;8.404;2023-12-20T02:21:32;8.00;;;2.97;;
1410;SDS011;700;51.906;8.404;2023-12-20T02:26:35;7.00;;;2.77;;
1410;SDS011;700;51.906;8.404;2023-12-20T02:31:38;6.30;;;2.60;;
1410;SDS011;700;51.906;8.404;2023-12-20T02:36:39;8.67;;;2.87;;
1410;SDS011;700;51.906;8.404;2023-12-20T02:41:39;4.93;;;3.20;;
1410;SDS011;700;51.906;8.404;2023-12-20T02:46:42;10.43;;;4.00;;
1410;SDS011;700;51.906;8.404;2023-12-20T02:51:45;7.23;;;3.77;;
1410;SDS011;700;51.906;8.404;2023-12-20T02:56:49;6.43;;;4.23;;
1410;SDS011;700;51.906;8.404;2023-12-20T03:01:49;9.87;;;4.57;;
1410;SDS011;700;51.906;8.404;2023-12-20T03:06:50;14.80;;;6.70;;
1410;SDS011;700;51.906;8.404;2023-12-20T03:11:50;10.93;;;4.83;;
1410;SDS011;700;51.906;8.404;2023-12-20T03:16:51;12.53;;;5.13;;
1410;SDS011;700;51.906;8.404;2023-12-20T03:21:52;9.50;;;5.63;;
1410;SDS011;700;51.906;8.404;2023-12-20T03:26:53;11.67;;;4.97;;
1410;SDS011;700;51.906;8.404;2023-12-20T03:31:56;11.50;;;5.17;;
1410;SDS011;700;51.906;8.404;2023-12-20T03:36:57;8.70;;;5.40;;
1410;SDS011;700;51.906;8.404;2023-12-20T03:42:00;10.13;;;4.80;;
1410;SDS011;700;51.906;8.404;2023-12-20T03:47:00;11.60;;;5.37;;
1410;SDS011;700;51.906;8.404;2023-12-20T03:52:05;11.53;;;5.30;;
1410;SDS011;700;51.906;8.404;2023-12-20T03:57:14;13.63;;;5.03;;
1410;SDS011;700;51.906;8.404;2023-12-20T04:02:14;7.37;;;4.27;;
1410;SDS011;700;51.906;8.404;2023-12-20T04:07:15;13.93;;;4.60;;
1410;SDS011;700;51.906;8.404;2023-12-20T04:12:18;8.93;;;4.83;;
1410;SDS011;700;51.906;8.404;2023-12-20T04:17:19;10.83;;;4.67;;
1410;SDS011;700;51.906;8.404;2023-12-20T04:22:20;14.13;;;4.40;;
1410;SDS011;700;51.906;8.404;2023-12-20T04:27:21;9.73;;;4.60;;
1410;SDS011;700;51.906;8.404;2023-12-20T04:32:21;11.60;;;3.20;;
1410;SDS011;700;51.906;8.404;2023-12-20T04:37:24;12.40;;;4.57;;
1410;SDS011;700;51.906;8.404;2023-12-20T04:42:27;9.47;;;4.33;;
1410;SDS011;700;51.906;8.404;2023-12-20T04:47:27;10.50;;;3.60;;
1410;SDS011;700;51.906;8.404;2023-12-20T04:52:28;11.90;;;3.63;;
1410;SDS011;700;51.906;8.404;2023-12-20T04:57:31;10.63;;;4.43;;
1410;SDS011;700;51.906;8.404;2023-12-20T05:02:34;13.77;;;3.80;;
1410;SDS011;700;51.906;8.404;2023-12-20T05:07:45;9.93;;;3.77;;
1410;SDS011;700;51.906;8.404;2023-12-20T05:12:48;12.83;;;4.07;;
1410;SDS011;700;51.906;8.404;2023-12-20T05:17:53;9.40;;;4.17;;
1410;SDS011;700;51.906;8.404;2023-12-20T05:22:54;8.43;;;3.97;;
1410;SDS011;700;51.906;8.404;2023-12-20T05:27:54;14.60;;;5.50;;
1410;SDS011;700;51.906;8.404;2023-12-20T05:32:58;11.33;;;4.93;;
1410;SDS011;700;51.906;8.404;2023-12-20T05:37:58;12.20;;;4.90;;
1410;SDS011;700;51.906;8.404;2023-12-20T05:43:01;14.67;;;6.20;;
1410;SDS011;700;51.906;8.404;2023-12-20T05:48:05;9.00;;;4.00;;
1410;SDS011;700;51.906;8.404;2023-12-20T05:53:07;16.73;;;5.47;;
1410;SDS011;700;51.906;8.404;2023-12-20T05:58:08;16.07;;;5.60;;
1410;SDS011;700;51.906;8.404;2023-12-20T06:03:11;13.37;;;5.03;;
1410;SDS011;700;51.906;8.404;2023-12-20T06:08:11;12.33;;;5.90;;
1410;SDS011;700;51.906;8.404;2023-12-20T06:13:12;15.37;;;5.70;;
1410;SDS011;700;51.906;8.404;2023-12-20T06:18:13;13.07;;;4.80;;
1410;SDS011;700;51.906;8.404;2023-12-20T06:23:14;9.23;;;5.07;;
1410;SDS011;700;51.906;8.404;2023-12-20T06:28:15;8.93;;;5.23;;
1410;SDS011;700;51.906;8.404;2023-12-20T06:33:17;10.63;;;4.53;;
1410;SDS011;700;51.906;8.404;2023-12-20T06:38:19;13.80;;;4.80;;
1410;SDS011;700;51.906;8.404;2023-12-20T06:43:19;12.03;;;4.77;;
1410;SDS011;700;51.906;8.404;2023-12-20T06:48:22;15.40;;;5.33;;
1410;SDS011;700;51.906;8.404;2023-12-20T06:53:22;15.93;;;5.20;;
1410;SDS011;700;51.906;8.404;2023-12-20T06:58:25;14.83;;;4.40;;
1410;SDS011;700;51.906;8.404;2023-12-20T07:03:28;13.30;;;5.67;;
1410;SDS011;700;51.906;8.404;2023-12-20T07:08:29;12.57;;;4.90;;
1410;SDS011;700;51.906;8.404;2023-12-20T07:13:30;13.30;;;4.53;;
1410;SDS011;700;51.906;8.404;2023-12-20T07:18:33;14.97;;;5.73;;
1410;SDS011;700;51.906;8.404;2023-12-20T07:23:33;14.37;;;4.60;;
1410;SDS011;700;51.906;8.404;2023-12-20T07:28:34;11.47;;;4.83;;
1410;SDS011;700;51.906;8.404;2023-12-20T07:33:34;14.37;;;4.10;;
1410;SDS011;700;51.906;8.404;2023-12-20T07:38:36;15.23;;;4.13;;
1410;SDS011;700;51.906;8.404;2023-12-20T07:43:39;12.60;;;4.10;;
1410;SDS011;700;51.906;8.404;2023-12-20T07:48:41;14.93;;;4.10;;
1410;SDS011;700;51.906;8.404;2023-12-20T07:53:45;14.03;;;4.53;;
1410;SDS011;700;51.906;8.404;2023-12-20T07:58:45;8.83;;;3.77;;
1410;SDS011;700;51.906;8.404;2023-12-20T08:03:50;12.23;;;4.30;;
1410;SDS011;700;51.906;8.404;2023-12-20T08:08:53;14.47;;;4.10;;
1410;SDS011;700;51.906;8.404;2023-12-20T08:13:54;11.97;;;4.40;;
1410;SDS011;700;51.906;8.404;2023-12-20T08:18:54;11.27;;;4.70;;
1410;SDS011;700;51.906;8.404;2023-12-20T08:23:55;8.63;;;4.17;;
1410;SDS011;700;51.906;8.404;2023-12-20T08:29:00;9.63;;;3.97;;
1410;SDS011;700;51.906;8.404;2023-12-20T08:34:01;10.97;;;4.50;;
1410;SDS011;700;51.906;8.404;2023-12-20T08:39:07;10.20;;;5.33;;
1410;SDS011;700;51.906;8.404;2023-12-20T08:44:08;9.47;;;4.70;;
1410;SDS011;700;51.906;8.404;2023-12-20T08:49:09;16.73;;;5.70;;
1410;SDS011;700;51.906;8.404;2023-12-20T08:54:10;14.13;;;5.73;;
1410;SDS011;700;51.906;8.404;2023-12-20T08:59:15;11.80;;;6.30;;
1410;SDS011;700;51.906;8.404;2023-12-20T09:04:18;11.40;;;6.63;;
1410;SDS011;700;51.906;8.404;2023-12-20T09:09:19;17.17;;;6.60;;
1410;SDS011;700;51.906;8.404;2023-12-20T09:14:22;14.77;;;7.27;;
1410;SDS011;700;51.906;8.404;2023-12-20T09:19:22;14.70;;;6.70;;
1410;SDS011;700;51.906;8.404;2023-12-20T09:24:25;19.73;;;8.10;;
1410;SDS011;700;51.906;8.404;2023-12-20T09:29:28;26.57;;;8.33;;
1410;SDS011;700;51.906;8.404;2023-12-20T09:34:33;14.07;;;7.67;;
1410;SDS011;700;51.906;8.404;2023-12-20T09:39:34;11.83;;;7.40;;
1410;SDS011;700;51.906;8.404;2023-12-20T09:44:37;16.27;;;7.47;;
1410;SDS011;700;51.906;8.404;2023-12-20T09:49:42;17.03;;;7.00;;
1410;SDS011;700;51.906;8.404;2023-12-20T09:54:47;13.80;;;6.20;;
1410;SDS011;700;51.906;8.404;2023-12-20T09:59:52;13.27;;;6.43;;
1410;SDS011;700;51.906;8.404;2023-12-20T10:04:54;23.97;;;6.70;;
1410;SDS011;700;51.906;8.404;2023-12-20T10:09:54;15.47;;;6.70;;
1410;SDS011;700;51.906;8.404;2023-12-20T10:14:57;14.87;;;5.57;;
1410;SDS011;700;51.906;8.404;2023-12-20T10:19:58;18.50;;;5.60;;
1410;SDS011;700;51.906;8.404;2023-12-20T10:24:58;13.37;;;5.40;;
1410;SDS011;700;51.906;8.404;2023-12-20T10:29:59;10.80;;;5.33;;
1410;SDS011;700;51.906;8.404;2023-12-20T10:35:00;20.80;;;5.43;;
1410;SDS011;700;51.906;8.404;2023-12-20T10:40:01;12.03;;;4.40;;
1410;SDS011;700;51.906;8.404;2023-12-20T10:45:09;13.67;;;5.30;;
1410;SDS011;700;51.906;8.404;2023-12-20T10:50:16;12.77;;;4.37;;
1410;SDS011;700;51.906;8.404;2023-12-20T10:55:17;11.10;;;4.50;;
1410;SDS011;700;51.906;8.404;2023-12-20T11:00:18;12.90;;;5.27;;
1410;SDS011;700;51.906;8.404;2023-12-20T11:10:42;11.47;;;5.13;;
1410;SDS011;700;51.906;8.404;2023-12-20T11:15:44;9.30;;;4.03;;
1410;SDS011;700;51.906;8.404;2023-12-20T11:20:47;8.67;;;4.47;;
1410;SDS011;700;51.906;8.404;2023-12-20T11:25:52;9.80;;;4.20;;
1410;SDS011;700;51.906;8.404;2023-12-20T11:30:56;16.73;;;4.00;;
1410;SDS011;700;51.906;8.404;2023-12-20T11:35:59;10.87;;;4.10;;
1410;SDS011;700;51.906;8.404;2023-12-20T11:41:00;9.30;;;3.80;;
1410;SDS011;700;51.906;8.404;2023-12-20T11:46:07;9.10;;;3.83;;
1410;SDS011;700;51.906;8.404;2023-12-20T11:51:10;12.00;;;3.00;;
1410;SDS011;700;51.906;8.404;2023-12-20T11:56:11;9.27;;;3.20;;
1410;SDS011;700;51.906;8.404;2023-12-20T12:01:14;5.07;;;2.50;;
1410;SDS011;700;51.906;8.404;2023-12-20T12:06:15;5.00;;;2.30;;
1410;SDS011;700;51.906;8.404;2023-12-20T12:11:18;4.77;;;2.50;;
1410;SDS011;700;51.906;8.404;2023-12-20T12:16:21;10.40;;;3.70;;
1410;SDS011;700;51.906;8.404;2023-12-20T12:21:27;6.67;;;2.83;;
1410;SDS011;700;51.906;8.404;2023-12-20T12:26:29;7.77;;;2.90;;
1410;SDS011;700;51.906;8.404;2023-12-20T12:31:32;14.33;;;3.37;;
1410;SDS011;700;51.906;8.404;2023-12-20T12:36:33;7.10;;;3.40;;
1410;SDS011;700;51.906;8.404;2023-12-20T12:41:34;12.63;;;4.90;;
1410;SDS011;700;51.906;8.404;2023-12-20T12:46:34;9.90;;;3.37;;
1410;SDS011;700;51.906;8.404;2023-12-20T12:51:35;13.73;;;3.30;;
1410;SDS011;700;51.906;8.404;2023-12-20T12:56:36;7.67;;;3.40;;
1410;SDS011;700;51.906;8.404;2023-12-20T13:01:39;10.80;;;3.90;;
1410;SDS011;700;51.906;8.404;2023-12-20T13:06:42;11.80;;;2.60;;
1410;SDS011;700;51.906;8.404;2023-12-20T13:11:45;7.00;;;2.87;;
1410;SDS011;700;51.906;8.404;2023-12-20T13:16:48;9.63;;;2.83;;
1410;SDS011;700;51.906;8.404;2023-12-20T13:21:48;14.17;;;3.90;;
1410;SDS011;700;51.906;8.404;2023-12-20T13:26:51;8.37;;;2.77;;
1410;SDS011;700;51.906;8.404;2023-12-20T13:31:52;7.00;;;1.97;;
1410;SDS011;700;51.906;8.404;2023-12-20T13:36:52;5.67;;;1.27;;
1410;SDS011;700;51.906;8.404;2023-12-20T13:41:53;5.00;;;2.10;;
1410;SDS011;700;51.906;8.404;2023-12-20T13:46:54;2.20;;;0.87;;
1410;SDS011;700;51.906;8.404;2023-12-20T13:51:56;9.13;;;2.10;;
1410;SDS011;700;51.906;8.404;2023-12-20T13:56:58;4.53;;;1.30;;
1410;SDS011;700;51.906;8.404;2023-12-20T14:02:03;3.93;;;1.43;;
1410;SDS011;700;51.906;8.404;2023-12-20T14:07:06;4.10;;;1.73;;
1410;SDS011;700;51.906;8.404;2023-12-20T14:12:07;5.97;;;3.10;;
1410;SDS011;700;51.906;8.404;2023-12-20T14:17:10;2.90;;;1.10;;
1410;SDS011;700;51.906;8.404;2023-12-20T14:22:11;3.63;;;1.47;;
1410;SDS011;700;51.906;8.404;2023-12-20T14:27:12;3.40;;;1.03;;
1410;SDS011;700;51.906;8.404;2023-12-20T14:32:15;6.63;;;1.93;;
1410;SDS011;700;51.906;8.404;2023-12-20T14:37:16;3.83;;;1.63;;
1410;SDS011;700;51.906;8.404;2023-12-20T14:42:21;4.43;;;1.73;;
1410;SDS011;700;51.906;8.404;2023-12-20T14:47:22;4.40;;;1.70;;
1410;SDS011;700;51.906;8.404;2023-12-20T14:52:23;7.63;;;1.57;;
1410;SDS011;700;51.906;8.404;2023-12-20T14:57:26;2.73;;;1.70;;
1410;SDS011;700;51.906;8.404;2023-12-20T15:02:26;2.43;;;1.87;;
1410;SDS011;700;51.906;8.404;2023-12-20T15:07:27;2.60;;;1.53;;
1410;SDS011;700;51.906;8.404;2023-12-20T15:12:30;3.70;;;1.80;;
1410;SDS011;700;51.906;8.404;2023-12-20T15:17:36;5.60;;;2.50;;
1410;SDS011;700;51.906;8.404;2023-12-20T15:22:37;3.27;;;1.97;;
1410;SDS011;700;51.906;8.404;2023-12-20T15:27:39;4.03;;;2.23;;
1410;SDS011;700;51.906;8.404;2023-12-20T15:32:40;7.20;;;3.90;;
1410;SDS011;700;51.906;8.404;2023-12-20T15:37:40;4.20;;;2.10;;
1410;SDS011;700;51.906;8.404;2023-12-20T15:42:44;6.33;;;3.00;;
1410;SDS011;700;51.906;8.404;2023-12-20T15:47:44;11.00;;;4.27;;
1410;SDS011;700;51.906;8.404;2023-12-20T15:52:45;8.40;;;4.57;;
1410;SDS011;700;51.906;8.404;2023-12-20T15:57:46;16.10;;;5.50;;
1410;SDS011;700;51.906;8.404;2023-12-20T16:02:49;12.70;;;5.70;;
1410;SDS011;700;51.906;8.404;2023-12-20T16:07:49;12.40;;;5.20;;
1410;SDS011;700;51.906;8.404;2023-12-20T16:12:50;11.57;;;5.03;;
1410;SDS011;700;51.906;8.404;2023-12-20T16:17:51;10.70;;;5.20;;
1410;SDS011;700;51.906;8.404;2023-12-20T16:22:51;8.93;;;5.07;;
1410;SDS011;700;51.906;8.404;2023-12-20T16:27:54;10.67;;;5.73;;
1410;SDS011;700;51.906;8.404;2023-12-20T16:32:55;9.80;;;6.10;;
1410;SDS011;700;51.906;8.404;2023-12-20T16:37:59;10.93;;;6.60;;
1410;SDS011;700;51.906;8.404;2023-12-20T16:43:07;11.63;;;6.87;;
1410;SDS011;700;51.906;8.404;2023-12-20T16:48:08;14.20;;;6.10;;
1410;SDS011;700;51.906;8.404;2023-12-20T16:53:11;21.23;;;9.03;;
1410;SDS011;700;51.906;8.404;2023-12-20T16:58:16;12.67;;;5.90;;
1410;SDS011;700;51.906;8.404;2023-12-20T17:03:19;9.97;;;6.27;;
1410;SDS011;700;51.906;8.404;2023-12-20T17:08:20;15.07;;;6.90;;
1410;SDS011;700;51.906;8.404;2023-12-20T17:13:20;9.70;;;7.00;;
1410;SDS011;700;51.906;8.404;2023-12-20T17:18:23;13.30;;;8.40;;
1410;SDS011;700;51.906;8.404;2023-12-20T17:23:28;10.43;;;6.37;;
1410;SDS011;700;51.906;8.404;2023-12-20T17:28:29;13.60;;;6.10;;
1410;SDS011;700;51.906;8.404;2023-12-20T17:33:29;11.83;;;6.90;;
1410;SDS011;700;51.906;8.404;2023-12-20T17:38:35;18.60;;;6.30;;
1410;SDS011;700;51.906;8.404;2023-12-20T17:43:41;17.10;;;8.00;;
1410;SDS011;700;51.906;8.404;2023-12-20T17:48:42;13.43;;;7.37;;
1410;SDS011;700;51.906;8.404;2023-12-20T17:53:43;21.07;;;8.10;;
1410;SDS011;700;51.906;8.404;2023-12-20T17:58:44;14.53;;;8.23;;
1410;SDS011;700;51.906;8.404;2023-12-20T18:03:45;15.47;;;9.80;;
1410;SDS011;700;51.906;8.404;2023-12-20T18:08:46;15.77;;;8.70;;
1410;SDS011;700;51.906;8.404;2023-12-20T18:13:46;12.30;;;9.33;;
1410;SDS011;700;51.906;8.404;2023-12-20T18:18:50;15.23;;;9.63;;
1410;SDS011;700;51.906;8.404;2023-12-20T18:23:56;20.23;;;11.17;;
1410;SDS011;700;51.906;8.404;2023-12-20T18:28:59;17.97;;;10.63;;
1410;SDS011;700;51.906;8.404;2023-12-20T18:33:59;17.97;;;11.00;;
1410;SDS011;700;51.906;8.404;2023-12-20T18:39:02;25.13;;;13.80;;
1410;SDS011;700;51.906;8.404;2023-12-20T18:44:05;20.10;;;15.17;;
1410;SDS011;700;51.906;8.404;2023-12-20T18:49:06;19.73;;;14.27;;
1410;SDS011;700;51.906;8.404;2023-12-20T18:54:11;20.07;;;14.73;;
1410;SDS011;700;51.906;8.404;2023-12-20T18:59:12;22.00;;;14.87;;
1410;SDS011;700;51.906;8.404;2023-12-20T19:04:15;17.30;;;14.13;;
1410;SDS011;700;51.906;8.404;2023-12-20T19:09:15;18.97;;;14.13;;
1410;SDS011;700;51.906;8.404;2023-12-20T19:14:16;16.70;;;13.63;;
1410;SDS011;700;51.906;8.404;2023-12-20T19:19:17;18.87;;;12.60;;
1410;SDS011;700;51.906;8.404;2023-12-20T19:24:18;27.67;;;12.90;;
1410;SDS011;700;51.906;8.404;2023-12-20T19:29:21;17.70;;;14.63;;
1410;SDS011;700;51.906;8.404;2023-12-20T19:34:21;17.90;;;12.70;;
1410;SDS011;700;51.906;8.404;2023-12-20T19:39:22;20.20;;;14.03;;
1410;SDS011;700;51.906;8.404;2023-12-20T19:44:23;19.83;;;13.70;;
1410;SDS011;700;51.906;8.404;2023-12-20T19:49:26;18.87;;;14.20;;
1410;SDS011;700;51.906;8.404;2023-12-20T19:54:30;19.57;;;13.07;;
1410;SDS011;700;51.906;8.404;2023-12-20T19:59:31;16.60;;;13.00;;
1410;SDS011;700;51.906;8.404;2023-12-20T20:04:31;19.43;;;13.20;;
1410;SDS011;700;51.906;8.404;2023-12-20T20:09:32;20.47;;;11.93;;
1410;SDS011;700;51.906;8.404;2023-12-20T20:14:35;18.43;;;13.00;;
1410;SDS011;700;51.906;8.404;2023-12-20T20:19:38;16.63;;;12.57;;
1410;SDS011;700;51.906;8.404;2023-12-20T20:24:38;17.73;;;12.43;;
1410;SDS011;700;51.906;8.404;2023-12-20T20:29:39;15.47;;;11.87;;
1410;SDS011;700;51.906;8.404;2023-12-20T20:34:40;15.63;;;10.70;;
1410;SDS011;700;51.906;8.404;2023-12-20T20:39:41;17.00;;;9.93;;
1410;SDS011;700;51.906;8.404;2023-12-20T20:44:42;16.17;;;10.27;;
1410;SDS011;700;51.906;8.404;2023-12-20T20:49:42;13.80;;;9.60;;
1410;SDS011;700;51.906;8.404;2023-12-20T20:54:45;15.00;;;10.50;;
1410;SDS011;700;51.906;8.404;2023-12-20T20:59:46;12.37;;;8.80;;
1410;SDS011;700;51.906;8.404;2023-12-20T21:04:50;15.23;;;8.67;;
1410;SDS011;700;51.906;8.404;2023-12-20T21:09:50;17.77;;;9.27;;
1410;SDS011;700;51.906;8.404;2023-12-20T21:14:51;10.60;;;9.47;;
1410;SDS011;700;51.906;8.404;2023-12-20T21:19:51;14.20;;;9.90;;
1410;SDS011;700;51.906;8.404;2023-12-20T21:24:52;11.70;;;8.43;;
1410;SDS011;700;51.906;8.404;2023-12-20T21:29:55;9.03;;;7.87;;
1410;SDS011;700;51.906;8.404;2023-12-20T21:34:58;11.67;;;8.60;;
1410;SDS011;700;51.906;8.404;2023-12-20T21:40:02;13.00;;;8.90;;
1410;SDS011;700;51.906;8.404;2023-12-20T21:45:02;12.10;;;8.70;;
1410;SDS011;700;51.906;8.404;2023-12-20T21:50:04;10.40;;;9.30;;
1410;SDS011;700;51.906;8.404;2023-12-20T21:55:05;12.27;;;9.00;;
1410;SDS011;700;51.906;8.404;2023-12-20T22:00:07;9.67;;;8.50;;
1410;SDS011;700;51.906;8.404;2023-12-20T22:05:10;9.97;;;8.90;;
1410;SDS011;700;51.906;8.404;2023-12-20T22:10:13;9.23;;;8.07;;
1410;SDS011;700;51.906;8.404;2023-12-20T22:15:14;9.87;;;7.90;;
1410;SDS011;700;51.906;8.404;2023-12-20T22:20:15;10.90;;;8.80;;
1410;SDS011;700;51.906;8.404;2023-12-20T22:25:18;9.40;;;7.90;;
1410;SDS011;700;51.906;8.404;2023-12-20T22:30:19;8.43;;;7.50;;
1410;SDS011;700;51.906;8.404;2023-12-20T22:35:19;8.27;;;7.37;;
1410;SDS011;700;51.906;8.404;2023-12-20T22:40:21;8.63;;;7.73;;
1410;SDS011;700;51.906;8.404;2023-12-20T22:45:24;10.80;;;8.17;;
1410;SDS011;700;51.906;8.404;2023-12-20T22:50:24;7.10;;;6.40;;
1410;SDS011;700;51.906;8.404;2023-12-20T22:55:28;8.53;;;7.47;;
1410;SDS011;700;51.906;8.404;2023-12-20T23:00:30;6.90;;;6.20;;
1410;SDS011;700;51.906;8.404;2023-12-20T23:05:31;6.27;;;5.67;;
1410;SDS011;700;51.906;8.404;2023-12-20T23:10:35;6.50;;;5.90;;
1410;SDS011;700;51.906;8.404;2023-12-20T23:15:35;6.00;;;5.40;;
1410;SDS011;700;51.906;8.404;2023-12-20T23:20:36;5.30;;;4.80;;
1410;SDS011;700;51.906;8.404;2023-12-20T23:25:40;5.70;;;5.10;;
1410;SDS011;700;51.906;8.404;2023-12-20T23:30:43;5.03;;;4.50;;
1410;SDS011;700;51.906;8.404;2023-12-20T23:35:44;5.37;;;4.70;;
1410;SDS011;700;51.906;8.404;2023-12-20T23:40:45;5.93;;;5.40;;
1410;SDS011;700;51.906;8.404;2023-12-20T23:45:46;5.07;;;4.30;;
1410;SDS011;700;51.906;8.404;2023-12-20T23:50:46;5.40;;;4.50;;
1410;SDS011;700;51.906;8.404;2023-12-20T23:55:48;7.13;;;5.20;;
